Weather at Blythe Airport

Public forecast

Using degrees Fahrenheit for public forecast. Weather courtesy of forecast.io.

Current aviation weather report (METAR) for Blythe Airport

Retrieved 2020/09/26 18:52 UTC (1 hour ago):

KBLH 261852Z AUTO 17005KT 10SM CLR 35/08 A2986 RMK AO2 SLP104 T03500078

Aviation forecast (TAF) for Blythe Airport

Retrieved 2020/09/26 18:45 UTC (1 hour ago):

TAF KBLH 261743Z 2618/2718 18010G18KT P6SM SKC FM270300 20006KT P6SM SKC FM270700 VRB04KT P6SM FEW250